createdAt,value
2023-01-19T08:01:17.810Z,4.38
2023-01-19T08:01:27.821Z,2.37
2023-01-19T08:01:38.042Z,2.83
2023-01-19T08:01:47.971Z,3.01
2023-01-19T08:01:58.351Z,3.17
2023-01-19T08:02:08.173Z,3.34
2023-01-19T08:02:18.149Z,3.05
2023-01-19T08:02:28.028Z,3.14
2023-01-19T08:02:38.096Z,3.10
2023-01-19T08:02:47.983Z,3.08
2023-01-19T08:02:58.205Z,2.80
2023-01-19T08:03:07.984Z,2.87
2023-01-19T08:03:17.971Z,2.72
2023-01-19T08:03:27.961Z,2.64
2023-01-19T08:03:37.936Z,3.30
2023-01-19T08:03:47.896Z,3.28
2023-01-19T08:03:57.927Z,3.57
2023-01-19T08:04:07.870Z,3.62
2023-01-19T08:04:17.836Z,3.46
2023-01-19T08:04:27.809Z,3.52
2023-01-19T08:04:37.808Z,3.84
2023-01-19T08:04:47.874Z,3.50
2023-01-19T08:04:57.723Z,3.53
2023-01-19T08:05:07.691Z,3.55
2023-01-19T08:05:17.705Z,3.55
2023-01-19T08:05:27.637Z,3.74
2023-01-19T08:05:37.571Z,3.68
2023-01-19T08:05:47.527Z,3.75
2023-01-19T08:05:57.570Z,3.69
2023-01-19T08:06:07.481Z,3.45
2023-01-19T08:06:17.467Z,3.28
2023-01-19T08:06:27.447Z,3.90
2023-01-19T08:06:37.409Z,3.69
2023-01-19T08:06:47.438Z,3.11
2023-01-19T08:06:57.350Z,3.09
2023-01-19T08:07:07.285Z,3.01
2023-01-19T08:07:17.292Z,2.98
2023-01-19T08:07:27.230Z,3.54
2023-01-19T08:07:37.169Z,3.60
2023-01-19T08:07:47.264Z,3.44
2023-01-19T08:07:57.140Z,3.31
2023-01-19T08:08:07.073Z,3.08
2023-01-19T08:08:17.096Z,2.77
2023-01-19T08:08:27.041Z,2.96
2023-01-19T08:08:37.085Z,3.00
2023-01-19T08:08:47.002Z,3.12
2023-01-19T08:08:56.931Z,2.89
2023-01-19T08:09:06.978Z,2.76
2023-01-19T08:09:16.873Z,2.97
2023-01-19T08:09:26.846Z,2.90
2023-01-19T08:09:36.845Z,2.96
2023-01-19T08:09:46.820Z,3.10
2023-01-19T08:09:56.757Z,3.28
2023-01-19T08:10:06.740Z,3.39
2023-01-19T08:10:16.708Z,3.40
2023-01-19T08:10:26.709Z,3.29
2023-01-19T08:10:36.677Z,3.56
2023-01-19T08:10:46.619Z,3.33
2023-01-19T08:10:56.654Z,3.39
2023-01-19T08:11:06.582Z,3.19
2023-01-19T08:11:16.519Z,2.83
2023-01-19T08:11:26.471Z,3.04
2023-01-19T08:11:36.477Z,3.20
2023-01-19T08:11:46.427Z,3.01
2023-01-19T08:11:56.409Z,2.69
2023-01-19T08:12:06.374Z,2.85
2023-01-19T08:12:16.347Z,2.91
2023-01-19T08:12:26.305Z,9.07
2023-01-19T08:12:36.279Z,9.01
2023-01-19T08:12:46.290Z,10.41
2023-01-19T08:12:56.319Z,12.87
2023-01-19T08:13:06.210Z,13.88
2023-01-19T08:13:16.193Z,11.82
2023-01-19T08:13:26.096Z,10.11
2023-01-19T08:13:36.087Z,10.08
2023-01-19T08:13:46.064Z,8.85
2023-01-19T08:13:56.046Z,7.25
2023-01-19T08:14:07.933Z,7.61
2023-01-19T08:14:15.934Z,11.73
2023-01-19T08:14:25.890Z,20.91
2023-01-19T08:14:35.882Z,33.45
2023-01-19T08:14:45.817Z,42.07
2023-01-19T08:14:55.846Z,62.76
2023-01-19T08:15:05.707Z,102.76
2023-01-19T08:15:15.683Z,77.32
2023-01-19T08:15:25.720Z,67.46
2023-01-19T08:15:35.624Z,55.77
2023-01-19T08:15:45.571Z,57.23
2023-01-19T08:15:55.536Z,104.10
2023-01-19T08:16:05.450Z,66.36
2023-01-19T08:16:15.422Z,53.85
2023-01-19T08:16:25.346Z,36.19
2023-01-19T08:16:35.308Z,32.22
2023-01-19T08:16:45.266Z,28.39
2023-01-19T08:16:55.214Z,27.03
2023-01-19T08:17:05.161Z,25.14
2023-01-19T08:17:15.126Z,22.74
2023-01-19T08:17:25.080Z,21.51
2023-01-19T08:17:35.006Z,19.32
2023-01-19T08:17:45.049Z,20.25
2023-01-19T08:17:54.952Z,20.38
2023-01-19T08:18:04.992Z,19.36
2023-01-19T08:18:14.828Z,19.04
2023-01-19T08:18:24.820Z,17.75
2023-01-19T08:18:34.793Z,14.30
2023-01-19T08:18:44.731Z,11.67
2023-01-19T08:18:54.718Z,10.32
2023-01-19T08:19:04.704Z,9.63
2023-01-19T08:19:14.630Z,10.17
2023-01-19T08:19:24.618Z,9.87
2023-01-19T08:19:34.553Z,10.13
2023-01-19T08:19:44.524Z,10.07
2023-01-19T08:19:54.493Z,11.05
2023-01-19T08:20:04.451Z,11.47
2023-01-19T08:20:14.444Z,11.12
2023-01-19T08:20:24.418Z,9.87
2023-01-19T08:20:34.397Z,9.85
2023-01-19T08:20:44.329Z,9.45
2023-01-19T08:20:54.263Z,10.01
2023-01-19T08:21:04.298Z,10.49
2023-01-19T08:21:14.265Z,9.46
2023-01-19T08:21:24.191Z,8.65
2023-01-19T08:21:34.184Z,8.59
2023-01-19T08:21:44.122Z,8.60
2023-01-19T08:21:54.079Z,7.77
2023-01-19T08:22:04.056Z,7.08
2023-01-19T08:22:14.026Z,6.89
2023-01-19T08:22:23.991Z,7.17
2023-01-19T08:22:34.061Z,6.81
2023-01-19T08:22:44.038Z,6.50
2023-01-19T08:22:53.976Z,6.47
2023-01-19T08:23:04.507Z,6.59
2023-01-19T08:23:13.959Z,6.96
2023-01-19T08:23:23.842Z,6.99
2023-01-19T08:23:33.798Z,6.15
2023-01-19T08:23:43.812Z,5.96
2023-01-19T08:23:53.730Z,6.10
2023-01-19T08:24:03.741Z,5.32
2023-01-19T08:24:13.664Z,4.88
2023-01-19T08:24:23.568Z,4.69
2023-01-19T08:24:33.533Z,4.69
2023-01-19T08:24:43.501Z,4.37
2023-01-19T08:24:53.422Z,4.52
2023-01-19T08:25:03.421Z,4.75
2023-01-19T08:25:13.391Z,4.36
2023-01-19T08:25:40.697Z,3.86
2023-01-19T08:25:50.702Z,4.00
2023-01-19T08:26:00.900Z,4.28
2023-01-19T08:26:10.905Z,4.24
2023-01-19T08:26:20.908Z,3.84
2023-01-19T08:26:30.951Z,3.77
2023-01-19T08:26:40.881Z,3.58
2023-01-19T08:26:50.911Z,3.36
2023-01-19T08:27:00.909Z,3.52
2023-01-19T08:27:11.468Z,4.00
2023-01-19T08:27:20.913Z,4.05
2023-01-19T08:27:30.878Z,4.04
2023-01-19T08:27:40.895Z,3.92
2023-01-19T08:27:50.921Z,3.99
2023-01-19T08:28:00.881Z,4.26
2023-01-19T08:28:10.894Z,3.85
2023-01-19T08:28:20.888Z,3.68
2023-01-19T08:28:30.969Z,3.77
2023-01-19T08:28:40.894Z,4.12
2023-01-19T08:28:50.866Z,4.27
2023-01-19T08:29:00.865Z,4.66
2023-01-19T08:29:10.865Z,4.25
2023-01-19T08:29:20.931Z,3.79
2023-01-19T08:29:30.892Z,3.76
2023-01-19T08:29:40.897Z,3.84
2023-01-19T08:29:50.920Z,3.91
2023-01-19T08:30:00.899Z,3.80
2023-01-19T08:30:10.871Z,3.74
2023-01-19T08:30:20.881Z,3.65
2023-01-19T08:30:30.872Z,3.53
2023-01-19T08:30:41.024Z,3.52
2023-01-19T08:30:50.973Z,3.82
2023-01-19T08:31:11.085Z,3.77
2023-01-19T08:31:20.456Z,3.78
2023-01-19T08:31:24.694Z,3.90
2023-01-19T08:31:31.032Z,3.91
2023-01-19T08:31:40.917Z,4.20
2023-01-19T08:31:50.938Z,4.39
2023-01-19T08:32:00.917Z,4.46
2023-01-19T08:32:10.994Z,4.29
2023-01-19T08:32:20.933Z,4.03
2023-01-19T08:32:30.921Z,3.81
2023-01-19T08:32:40.881Z,3.78
2023-01-19T08:32:50.856Z,5.36
2023-01-19T08:33:01.243Z,4.79
2023-01-19T08:33:11.115Z,4.52
2023-01-19T08:33:21.169Z,3.91
2023-01-19T08:33:31.236Z,3.40
2023-01-19T08:33:41.122Z,3.14
2023-01-19T08:33:51.176Z,2.95
2023-01-19T08:34:01.106Z,2.97
2023-01-19T08:34:11.159Z,3.13
2023-01-19T08:34:21.082Z,3.22
2023-01-19T08:34:31.128Z,3.16
2023-01-19T08:34:41.143Z,3.11
2023-01-19T08:34:51.100Z,3.31
2023-01-19T08:35:01.149Z,3.74
2023-01-19T08:35:11.146Z,4.11
2023-01-19T08:35:21.105Z,3.94
2023-01-19T08:35:31.122Z,3.90
2023-01-19T08:35:41.137Z,3.78
2023-01-19T08:35:51.094Z,3.83
2023-01-19T08:36:01.204Z,4.18
2023-01-19T08:36:11.110Z,4.47
2023-01-19T08:36:21.085Z,4.10
2023-01-19T08:36:31.118Z,3.93
2023-01-19T08:36:41.302Z,3.79
2023-01-19T08:36:51.115Z,3.82
2023-01-19T08:37:01.122Z,3.63
2023-01-19T08:37:11.152Z,3.48
2023-01-19T08:37:21.105Z,3.74
2023-01-19T08:37:32.692Z,3.58
2023-01-19T08:37:41.092Z,3.54
2023-01-19T08:37:51.118Z,3.48
2023-01-19T08:38:01.154Z,3.55
2023-01-19T08:38:11.182Z,3.37
2023-01-19T08:38:21.205Z,3.14
2023-01-19T08:38:31.137Z,3.35
2023-01-19T08:38:41.193Z,3.52
2023-01-19T08:38:51.108Z,3.75
2023-01-19T08:39:01.131Z,3.67
2023-01-19T08:39:11.076Z,3.54
2023-01-19T08:39:21.108Z,3.93
2023-01-19T08:39:31.134Z,3.88
2023-01-19T08:39:41.107Z,3.43
2023-01-19T08:39:51.117Z,3.53
2023-01-19T08:40:01.555Z,3.90
2023-01-19T08:40:11.278Z,4.09
2023-01-19T08:40:21.226Z,3.70
2023-01-19T08:40:31.242Z,3.48
2023-01-19T08:40:41.257Z,3.55
2023-01-19T08:40:51.246Z,3.25
2023-01-19T08:41:01.254Z,3.20
2023-01-19T08:41:11.210Z,3.56
2023-01-19T08:41:21.272Z,3.29
2023-01-19T08:41:31.257Z,3.05
2023-01-19T08:41:41.205Z,2.83
2023-01-19T08:41:51.225Z,2.85
2023-01-19T08:42:01.254Z,2.95
2023-01-19T08:42:11.215Z,2.99
2023-01-19T08:42:21.236Z,2.99
2023-01-19T08:42:31.247Z,3.00
2023-01-19T08:42:41.223Z,3.10
2023-01-19T08:42:51.238Z,3.25
2023-01-19T08:43:01.731Z,3.63
2023-01-19T08:43:11.199Z,3.96
2023-01-19T08:43:21.237Z,4.08
2023-01-19T08:43:31.281Z,3.99
2023-01-19T08:43:41.304Z,3.42
2023-01-19T08:43:51.257Z,3.42
2023-01-19T08:44:01.231Z,3.26
2023-01-19T08:44:11.199Z,3.35
2023-01-19T08:44:21.181Z,3.51
2023-01-19T08:44:31.197Z,4.54
2023-01-19T08:44:49.656Z,3.89
2023-01-19T08:44:58.151Z,3.44
2023-01-19T08:45:02.348Z,3.28
2023-01-19T08:45:11.207Z,3.15
2023-01-19T08:45:21.245Z,3.08
2023-01-19T08:45:31.206Z,3.61
2023-01-19T08:45:41.231Z,3.99
2023-01-19T08:45:51.280Z,4.25
2023-01-19T08:46:01.307Z,4.54
2023-01-19T08:46:11.292Z,4.77
2023-01-19T08:46:21.317Z,4.93
2023-01-19T08:46:31.248Z,4.78
2023-01-19T08:46:41.292Z,4.71
2023-01-19T08:46:51.192Z,4.49
2023-01-19T08:47:01.195Z,4.37
2023-01-19T08:47:11.258Z,4.44
2023-01-19T08:47:21.223Z,4.35
2023-01-19T08:47:31.212Z,4.51
2023-01-19T08:47:41.296Z,4.58
2023-01-19T08:47:51.233Z,4.68
